createdAt,value
2023-01-19T00:00:17.195Z,0.109
2023-01-19T00:01:16.439Z,0.219
2023-01-19T00:02:16.226Z,0.109
2023-01-19T00:03:16.474Z,0.109
2023-01-19T00:04:16.771Z,0.219
2023-01-19T00:05:16.764Z,0
2023-01-19T00:06:16.503Z,0
2023-01-19T00:07:16.473Z,0
2023-01-19T00:08:16.356Z,0.109
2023-01-19T00:09:16.204Z,0
2023-01-19T00:10:16.931Z,0
2023-01-19T00:11:16.695Z,0.109
2023-01-19T00:12:16.209Z,0
2023-01-19T00:13:16.044Z,0
2023-01-19T00:14:16.612Z,0
2023-01-19T00:15:16.546Z,0.109
2023-01-19T00:16:16.665Z,0
2023-01-19T00:17:16.555Z,0.219
2023-01-19T00:18:16.100Z,0
2023-01-19T00:19:16.463Z,0
2023-01-19T00:20:16.479Z,0
2023-01-19T00:21:16.526Z,0
2023-01-19T00:22:16.301Z,0
2023-01-19T00:23:16.235Z,0
2023-01-19T00:24:16.665Z,0
2023-01-19T00:25:16.348Z,0
2023-01-19T00:26:16.388Z,0
2023-01-19T00:27:16.437Z,0
2023-01-19T00:28:16.399Z,0
2023-01-19T00:29:16.264Z,0.119
2023-01-19T00:30:16.499Z,0.219
2023-01-19T00:31:16.169Z,0
2023-01-19T00:32:16.046Z,0.119
2023-01-19T00:33:16.595Z,0
2023-01-19T00:34:16.247Z,0
2023-01-19T00:35:16.208Z,0
2023-01-19T00:36:16.333Z,0
2023-01-19T00:37:16.258Z,0.100
2023-01-19T00:38:16.528Z,0.119
2023-01-19T00:39:16.395Z,0.109
2023-01-19T00:40:16.718Z,0
2023-01-19T00:41:16.137Z,0
2023-01-19T00:42:16.731Z,0.109
2023-01-19T00:43:16.252Z,0.109
2023-01-19T00:44:16.533Z,0.219
2023-01-19T00:45:16.746Z,0.109
2023-01-19T00:46:16.412Z,0
2023-01-19T00:47:16.218Z,0.109
2023-01-19T00:48:16.006Z,0
2023-01-19T00:49:16.146Z,0.219
2023-01-19T00:50:16.954Z,0
2023-01-19T00:51:16.324Z,0.109
2023-01-19T00:52:15.955Z,0.109
2023-01-19T00:53:16.530Z,0
2023-01-19T00:54:16.153Z,0
2023-01-19T00:55:16.455Z,0
2023-01-19T00:56:16.109Z,0
2023-01-19T00:57:16.290Z,0
2023-01-19T00:58:16.001Z,0
2023-01-19T00:59:16.614Z,0
2023-01-19T01:00:16.883Z,0
2023-01-19T01:01:18.279Z,0
2023-01-19T01:03:16.559Z,0
2023-01-19T01:04:16.241Z,0
2023-01-19T01:05:16.256Z,0
2023-01-19T01:06:16.326Z,0
2023-01-19T01:07:16.244Z,0
2023-01-19T01:08:16.011Z,0
2023-01-19T01:09:16.684Z,0
2023-01-19T01:10:16.345Z,0
2023-01-19T01:11:15.892Z,0
2023-01-19T01:12:16.317Z,0.109
2023-01-19T01:13:21.218Z,0
2023-01-19T01:14:16.116Z,0
2023-01-19T01:15:16.310Z,0
2023-01-19T01:16:16.497Z,0
2023-01-19T01:17:16.037Z,0
2023-01-19T01:18:16.556Z,0
2023-01-19T01:19:16.608Z,0
2023-01-19T01:20:16.227Z,0
2023-01-19T01:21:16.021Z,0.109
2023-01-19T01:22:16.340Z,0
2023-01-19T01:23:16.109Z,0
2023-01-19T01:24:16.378Z,0
2023-01-19T01:25:16.262Z,0
2023-01-19T01:26:16.749Z,0.109
2023-01-19T01:27:16.465Z,0
2023-01-19T01:28:16.175Z,0.109
2023-01-19T01:29:16.420Z,0
2023-01-19T01:30:16.561Z,0.109
2023-01-19T01:31:16.594Z,0
2023-01-19T01:32:16.751Z,0
2023-01-19T01:33:39.791Z,0
2023-01-19T01:34:16.517Z,0
2023-01-19T01:35:16.503Z,0
2023-01-19T01:36:16.575Z,0
2023-01-19T01:37:16.472Z,0
2023-01-19T01:38:16.692Z,0
2023-01-19T01:39:17.125Z,0
2023-01-19T01:40:16.719Z,0
2023-01-19T01:41:16.384Z,0
2023-01-19T01:42:16.255Z,0.109
2023-01-19T01:43:16.437Z,0
2023-01-19T01:44:16.134Z,0
2023-01-19T01:45:16.787Z,0.340
2023-01-19T01:46:16.740Z,0.119
2023-01-19T01:47:16.459Z,0
2023-01-19T01:48:15.970Z,0
2023-01-19T01:49:16.578Z,0
2023-01-19T01:50:16.214Z,0
2023-01-19T01:51:15.862Z,0.119
2023-01-19T01:52:16.228Z,0
2023-01-19T01:53:16.437Z,0
2023-01-19T01:54:16.002Z,0
2023-01-19T01:55:16.621Z,0
2023-01-19T01:56:15.851Z,0.109
2023-01-19T01:57:16.260Z,0
2023-01-19T01:58:16.318Z,0.119
2023-01-19T01:59:15.962Z,0
2023-01-19T02:00:16.680Z,0
2023-01-19T02:01:16.304Z,0.219
2023-01-19T02:02:15.969Z,0.560
2023-01-19T02:03:16.536Z,0.109
2023-01-19T02:04:16.157Z,0.449
2023-01-19T02:05:16.204Z,0
2023-01-19T02:06:15.967Z,0
2023-01-19T02:07:16.433Z,0
2023-01-19T02:08:15.785Z,0.219
2023-01-19T02:09:16.456Z,0.109
2023-01-19T02:10:15.952Z,0
2023-01-19T02:11:16.381Z,0.109
2023-01-19T02:12:15.959Z,0
2023-01-19T02:13:16.683Z,0
2023-01-19T02:14:16.424Z,0
2023-01-19T02:15:16.461Z,0
2023-01-19T02:16:16.133Z,0.109
2023-01-19T02:17:15.920Z,0
2023-01-19T02:18:16.250Z,0
2023-01-19T02:19:15.996Z,0
2023-01-19T02:20:16.512Z,0
2023-01-19T02:21:16.099Z,0
2023-01-19T02:22:16.018Z,0.340
2023-01-19T02:23:16.348Z,0
2023-01-19T02:24:15.967Z,0
2023-01-19T02:25:16.647Z,0
2023-01-19T02:26:16.366Z,0.109
2023-01-19T02:27:15.872Z,0.109
2023-01-19T02:28:16.493Z,0
2023-01-19T02:29:16.196Z,0
2023-01-19T02:30:16.471Z,0
2023-01-19T02:31:16.008Z,0.219
2023-01-19T02:32:16.139Z,0.109
2023-01-19T02:33:15.951Z,0.109
2023-01-19T02:34:16.256Z,0.449
2023-01-19T02:35:16.657Z,0
2023-01-19T02:36:16.238Z,0.109
2023-01-19T02:37:16.027Z,0.109
2023-01-19T02:38:16.693Z,0.219
2023-01-19T02:39:16.463Z,0.340
2023-01-19T02:40:16.177Z,0.449
2023-01-19T02:41:16.087Z,0.109
2023-01-19T02:42:16.785Z,0
2023-01-19T02:43:16.131Z,0.449
2023-01-19T02:44:16.438Z,0.560
2023-01-19T02:45:16.369Z,0.340
2023-01-19T02:46:16.119Z,0.340
2023-01-19T02:47:15.918Z,0.790
2023-01-19T02:48:16.464Z,0.219
2023-01-19T02:49:16.148Z,0.340
2023-01-19T02:50:16.867Z,0.219
2023-01-19T02:51:16.394Z,0.449
2023-01-19T02:52:16.109Z,0
2023-01-19T02:53:16.220Z,0.109
2023-01-19T02:54:16.329Z,0.340
2023-01-19T02:55:16.137Z,0.340
2023-01-19T02:56:16.232Z,0
2023-01-19T02:57:16.335Z,0.109
2023-01-19T02:58:16.208Z,0.219
2023-01-19T02:59:16.033Z,0.109
2023-01-19T03:00:16.609Z,0.340
2023-01-19T03:01:16.701Z,0
2023-01-19T03:02:16.410Z,0.219
2023-01-19T03:03:16.412Z,0.340
2023-01-19T03:04:16.192Z,0.340
2023-01-19T03:05:15.998Z,0.219
2023-01-19T03:06:16.377Z,0.340
2023-01-19T03:07:15.975Z,0.219
2023-01-19T03:08:16.335Z,0.340
2023-01-19T03:09:15.954Z,0
2023-01-19T03:10:16.467Z,0
2023-01-19T03:11:16.254Z,0
2023-01-19T03:12:16.200Z,0
2023-01-19T03:13:16.184Z,0
2023-01-19T03:14:16.552Z,0
2023-01-19T03:15:16.510Z,0.100
2023-01-19T03:16:16.320Z,0
2023-01-19T03:17:16.035Z,0
2023-01-19T03:18:16.130Z,0.109
2023-01-19T03:19:16.460Z,0
2023-01-19T03:20:16.347Z,0
2023-01-19T03:21:16.084Z,0
2023-01-19T03:22:16.445Z,0
2023-01-19T03:23:16.068Z,0
2023-01-19T03:24:16.452Z,0
2023-01-19T03:25:16.383Z,0.109
2023-01-19T03:26:16.141Z,0
2023-01-19T03:27:16.710Z,0.109
2023-01-19T03:28:16.049Z,0
2023-01-19T03:29:16.351Z,0
2023-01-19T03:30:16.276Z,0
2023-01-19T03:31:16.199Z,0
2023-01-19T03:32:16.429Z,0
2023-01-19T03:33:16.606Z,0
2023-01-19T03:34:16.574Z,0
2023-01-19T03:35:16.213Z,0
2023-01-19T03:36:16.609Z,0.109
2023-01-19T03:37:16.637Z,0
2023-01-19T03:38:16.215Z,0
2023-01-19T03:39:16.158Z,0
2023-01-19T03:40:16.833Z,0
2023-01-19T03:41:16.644Z,0
2023-01-19T03:42:16.400Z,0
2023-01-19T03:43:16.531Z,0
2023-01-19T03:44:15.956Z,0.109
2023-01-19T03:45:16.302Z,0
2023-01-19T03:46:15.974Z,0
2023-01-19T03:47:16.097Z,0
2023-01-19T03:48:16.629Z,0
2023-01-19T03:49:16.471Z,0
2023-01-19T03:50:16.290Z,0
2023-01-19T03:51:16.257Z,0
2023-01-19T03:52:16.306Z,0
2023-01-19T03:53:16.552Z,0
2023-01-19T03:54:16.491Z,0
2023-01-19T03:55:16.273Z,0
2023-01-19T03:56:16.568Z,0
2023-01-19T03:57:16.456Z,0
2023-01-19T03:58:16.008Z,0
2023-01-19T03:59:16.090Z,0.219
2023-01-19T04:00:17.242Z,0.109
2023-01-19T04:01:16.495Z,0
2023-01-19T04:02:16.616Z,0
2023-01-19T04:03:16.381Z,0
2023-01-19T04:04:16.447Z,0
2023-01-19T04:05:16.601Z,0
2023-01-19T04:06:16.488Z,0
2023-01-19T04:07:16.512Z,0
2023-01-19T04:08:16.416Z,0
2023-01-19T04:09:18.571Z,0
2023-01-19T04:10:16.639Z,0
2023-01-19T04:11:17.058Z,0
2023-01-19T04:12:17.022Z,0.109
2023-01-19T04:13:16.555Z,0.109
2023-01-19T04:14:17.030Z,0.109
2023-01-19T04:15:16.774Z,0.219
2023-01-19T04:16:16.920Z,0.109
2023-01-19T04:17:16.730Z,0.340
2023-01-19T04:18:17.082Z,0.219
2023-01-19T04:19:16.397Z,0.340
2023-01-19T04:20:16.612Z,0.109
2023-01-19T04:21:17.066Z,0.449
2023-01-19T04:22:17.131Z,0.219
2023-01-19T04:23:16.868Z,0
2023-01-19T04:24:17.048Z,0.219
2023-01-19T04:25:16.503Z,0.370
2023-01-19T04:26:16.888Z,0.310
2023-01-19T04:27:17.222Z,0.239
2023-01-19T04:28:16.508Z,0.340
2023-01-19T04:29:16.751Z,0.100
2023-01-19T04:30:17.070Z,0
2023-01-19T04:31:16.301Z,0.219
2023-01-19T04:32:16.538Z,0.200
2023-01-19T04:33:16.327Z,0.239
2023-01-19T04:34:16.289Z,0.449
2023-01-19T04:35:16.238Z,0.109
2023-01-19T04:36:16.105Z,0.219
2023-01-19T04:37:16.364Z,0.109
2023-01-19T04:38:16.148Z,0.109
2023-01-19T04:39:16.085Z,0.109
2023-01-19T04:40:16.853Z,0.340
2023-01-19T04:41:16.408Z,0.109
2023-01-19T04:42:16.186Z,0.219
2023-01-19T04:43:16.229Z,0.340
2023-01-19T04:44:16.164Z,0.109
2023-01-19T04:45:16.860Z,0.219
2023-01-19T04:46:16.534Z,0.109
2023-01-19T04:47:16.756Z,0
2023-01-19T04:48:16.414Z,0
2023-01-19T04:49:16.451Z,0.109
2023-01-19T04:50:16.714Z,0.219
2023-01-19T04:51:16.402Z,0.219
2023-01-19T04:52:16.082Z,0.109
2023-01-19T04:53:16.164Z,0.109
2023-01-19T04:54:16.514Z,0.109
2023-01-19T04:55:16.797Z,0.219
2023-01-19T04:56:16.378Z,0.109
2023-01-19T04:57:16.575Z,0.109
2023-01-19T04:58:16.175Z,0.109
2023-01-19T04:59:16.492Z,0
2023-01-19T05:00:17.242Z,0.219
2023-01-19T05:01:16.478Z,0
2023-01-19T05:02:16.820Z,0
2023-01-19T05:03:16.832Z,0
2023-01-19T05:04:16.347Z,0
2023-01-19T05:05:16.761Z,0.219
2023-01-19T05:06:16.411Z,0
2023-01-19T05:07:16.557Z,0
2023-01-19T05:08:16.509Z,0.109
2023-01-19T05:09:16.656Z,0
2023-01-19T05:10:16.659Z,0.109
2023-01-19T05:11:16.599Z,0.109
2023-01-19T05:12:16.496Z,0.109
2023-01-19T05:13:16.562Z,0.109
2023-01-19T05:14:16.400Z,0.109
2023-01-19T05:15:16.620Z,0
2023-01-19T05:16:15.528Z,0
2023-01-19T05:17:16.607Z,0
2023-01-19T05:18:16.650Z,0
2023-01-19T05:19:16.303Z,0.109
2023-01-19T05:20:16.357Z,0
2023-01-19T05:21:16.455Z,0
2023-01-19T05:22:16.364Z,0.109
2023-01-19T05:23:16.350Z,0
2023-01-19T05:24:16.414Z,0
2023-01-19T05:25:16.400Z,0
2023-01-19T05:26:16.125Z,0.109
2023-01-19T05:27:16.196Z,0
2023-01-19T05:28:16.877Z,0.109
2023-01-19T05:29:16.659Z,0.109
2023-01-19T05:30:16.611Z,0
2023-01-19T05:31:18.593Z,0.219
2023-01-19T05:32:16.859Z,0
2023-01-19T05:33:16.919Z,0
2023-01-19T05:34:16.811Z,0
2023-01-19T05:35:20.191Z,0.109
2023-01-19T05:36:16.640Z,0.109
2023-01-19T05:37:16.146Z,0.340
2023-01-19T05:38:20.856Z,0.109
2023-01-19T05:39:16.223Z,0
2023-01-19T05:40:16.400Z,0.100
2023-01-19T05:41:16.527Z,0.109
2023-01-19T05:42:16.392Z,0
2023-01-19T05:43:15.679Z,0.100
2023-01-19T05:44:16.600Z,0
2023-01-19T05:45:16.931Z,0.119
2023-01-19T05:46:16.795Z,0
2023-01-19T05:47:16.628Z,0.109
2023-01-19T05:48:16.665Z,0
2023-01-19T05:49:16.301Z,0
2023-01-19T05:50:16.054Z,0
2023-01-19T05:51:16.655Z,0
2023-01-19T05:52:16.461Z,0
2023-01-19T05:53:16.227Z,0
2023-01-19T05:54:16.050Z,0
2023-01-19T05:55:16.843Z,0.109
2023-01-19T05:56:16.614Z,0
2023-01-19T05:57:16.342Z,0
2023-01-19T05:58:16.158Z,0
2023-01-19T05:59:16.367Z,0.109
2023-01-19T06:00:16.852Z,0
2023-01-19T06:01:21.301Z,0
2023-01-19T06:02:16.260Z,0
2023-01-19T06:03:16.623Z,0
2023-01-19T06:04:16.666Z,0
2023-01-19T06:05:16.775Z,0
2023-01-19T06:06:16.680Z,0
2023-01-19T06:07:16.596Z,0
2023-01-19T06:08:16.666Z,0
2023-01-19T06:09:16.563Z,0
2023-01-19T06:10:16.820Z,0
2023-01-19T06:11:16.268Z,0
2023-01-19T06:12:16.734Z,0
2023-01-19T06:13:16.509Z,0
2023-01-19T06:14:16.367Z,0
2023-01-19T06:15:16.473Z,0
2023-01-19T06:16:16.406Z,0
2023-01-19T06:17:16.652Z,0
2023-01-19T06:18:16.724Z,0
2023-01-19T06:19:16.704Z,0
2023-01-19T06:20:16.919Z,0
2023-01-19T06:21:16.970Z,0
2023-01-19T06:22:16.758Z,0
2023-01-19T06:23:16.664Z,0
2023-01-19T06:24:16.397Z,0
2023-01-19T06:25:16.755Z,0
2023-01-19T06:26:16.530Z,0
2023-01-19T06:27:16.662Z,0
2023-01-19T06:28:16.492Z,0
2023-01-19T06:29:16.621Z,0
2023-01-19T06:30:16.720Z,0
2023-01-19T06:31:31.025Z,0
2023-01-19T06:32:16.577Z,0
2023-01-19T06:33:16.442Z,0
2023-01-19T06:34:16.425Z,0
2023-01-19T06:35:16.437Z,0
2023-01-19T06:36:16.362Z,0
2023-01-19T06:37:16.345Z,0
2023-01-19T06:38:16.276Z,0
2023-01-19T06:39:16.962Z,0
2023-01-19T06:40:16.702Z,0
2023-01-19T06:41:16.841Z,0
2023-01-19T06:42:16.737Z,0
2023-01-19T06:43:16.921Z,0
2023-01-19T06:44:16.876Z,0
2023-01-19T06:45:16.827Z,0
2023-01-19T06:46:16.307Z,0
2023-01-19T06:47:16.648Z,0
2023-01-19T06:48:16.483Z,0
2023-01-19T06:49:16.384Z,0
2023-01-19T06:50:16.600Z,0
2023-01-19T06:51:16.612Z,0
2023-01-19T06:52:16.461Z,0
2023-01-19T06:53:16.125Z,0
2023-01-19T06:54:16.536Z,0
2023-01-19T06:55:16.466Z,0
2023-01-19T06:56:16.132Z,0
2023-01-19T06:57:16.406Z,0
2023-01-19T06:58:16.366Z,0
2023-01-19T06:59:16.524Z,0
2023-01-19T07:00:17.094Z,0.119
2023-01-19T07:01:16.340Z,0
2023-01-19T07:02:27.061Z,0.100
2023-01-19T07:03:16.509Z,0.680
2023-01-19T07:04:16.345Z,0.680
2023-01-19T07:05:16.412Z,0.379
2023-01-19T07:06:16.304Z,0.400
2023-01-19T07:07:16.333Z,0.980
2023-01-19T07:08:16.270Z,1.700
2023-01-19T07:09:17.090Z,1.519
2023-01-19T07:10:16.254Z,2.589
2023-01-19T07:11:26.681Z,2.740
2023-01-19T07:12:16.581Z,3.819
2023-01-19T07:13:16.756Z,4.75
2023-01-19T07:14:16.763Z,5.579
2023-01-19T07:15:16.763Z,6.300
2023-01-19T07:16:16.434Z,7.340
2023-01-19T07:17:16.819Z,8.569
2023-01-19T07:18:16.527Z,9.699
2023-01-19T07:19:16.708Z,11.80
2023-01-19T07:20:16.708Z,13.27
2023-01-19T07:21:16.675Z,14.21
2023-01-19T07:22:16.366Z,15.06
2023-01-19T07:23:16.306Z,15.84
2023-01-19T07:24:15.987Z,16.68
2023-01-19T07:25:16.921Z,19
2023-01-19T07:26:16.510Z,21.39
2023-01-19T07:27:16.335Z,23.79
2023-01-19T07:28:16.499Z,25.98
2023-01-19T07:29:16.407Z,27.79
2023-01-19T07:30:16.714Z,29.84
2023-01-19T07:31:16.486Z,30.05
2023-01-19T07:32:16.813Z,29.14
2023-01-19T07:33:16.818Z,29.77
2023-01-19T07:34:16.400Z,30.70
2023-01-19T07:35:16.487Z,34.90
2023-01-19T07:36:16.030Z,38.72
2023-01-19T07:37:16.880Z,43.5
2023-01-19T07:38:16.913Z,50
2023-01-19T07:39:16.777Z,56.79
2023-01-19T07:40:16.701Z,61.70
2023-01-19T07:41:16.629Z,68.59
2023-01-19T07:42:16.131Z,69.40
2023-01-19T07:43:16.300Z,76.40
2023-01-19T07:44:16.244Z,80.40
2023-01-19T07:45:16.318Z,80.90
2023-01-19T07:46:16.258Z,86.30
2023-01-19T07:47:16.386Z,88.69
2023-01-19T07:48:16.433Z,94.90
2023-01-19T07:49:16.539Z,105
2023-01-19T07:50:16.467Z,117.5
2023-01-19T07:51:16.362Z,127
2023-01-19T07:52:16.491Z,139.3
2023-01-19T07:53:16.381Z,146.8
2023-01-19T07:54:16.351Z,149.6
2023-01-19T07:55:16.503Z,150.7
2023-01-19T07:56:16.219Z,156
2023-01-19T07:57:16.330Z,165.6
2023-01-19T07:58:16.426Z,176
2023-01-19T07:59:16.387Z,193
2023-01-19T08:00:17.000Z,216
2023-01-19T08:01:16.493Z,240
2023-01-19T08:02:17.400Z,258
2023-01-19T08:03:16.537Z,266.2
2023-01-19T08:04:16.148Z,273
2023-01-19T08:05:16.456Z,296
2023-01-19T08:06:16.182Z,323
2023-01-19T08:07:16.441Z,339
2023-01-19T08:08:16.021Z,349.1
2023-01-19T08:09:16.563Z,355.7
2023-01-19T08:10:16.273Z,361.8
2023-01-19T08:11:16.318Z,367
2023-01-19T08:12:16.146Z,376
2023-01-19T08:13:16.442Z,396
2023-01-19T08:14:16.328Z,420
2023-01-19T08:15:16.236Z,456
2023-01-19T08:16:16.451Z,480
2023-01-19T08:17:16.410Z,503
2023-01-19T08:18:16.295Z,525
2023-01-19T08:19:16.428Z,543
2023-01-19T08:20:16.168Z,559
2023-01-19T08:21:15.978Z,579
2023-01-19T08:22:16.008Z,592.2
2023-01-19T08:23:16.460Z,594.3
2023-01-19T08:24:16.552Z,590.7
2023-01-19T08:25:16.835Z,584.7
2023-01-19T08:26:16.676Z,581.7
2023-01-19T08:27:16.762Z,586.5
2023-01-19T08:28:16.555Z,597
2023-01-19T08:29:16.943Z,612
2023-01-19T08:30:22.036Z,628
2023-01-19T08:31:21.136Z,649
2023-01-19T08:32:16.893Z,671
2023-01-19T08:33:16.509Z,695
2023-01-19T08:34:16.677Z,713
2023-01-19T08:35:16.664Z,728
2023-01-19T08:36:16.458Z,745
2023-01-19T08:37:16.717Z,763
2023-01-19T08:38:16.680Z,779
2023-01-19T08:39:17.345Z,795
2023-01-19T08:40:16.714Z,811
2023-01-19T08:41:17.002Z,827
2023-01-19T08:42:16.911Z,836.2
2023-01-19T08:43:17.134Z,843.4
2023-01-19T08:44:16.304Z,859
2023-01-19T08:45:16.668Z,886
2023-01-19T08:46:16.754Z,905
2023-01-19T08:47:16.905Z,914.4
2023-01-19T08:48:16.381Z,911.5
2023-01-19T08:49:17.045Z,909.2
2023-01-19T08:50:17.270Z,915.7
2023-01-19T08:51:16.839Z,925
2023-01-19T08:52:16.871Z,946
2023-01-19T08:53:17.063Z,970
2023-01-19T08:54:18.366Z,1010
2023-01-19T08:55:17.191Z,1050
2023-01-19T08:56:16.819Z,1110
2023-01-19T08:57:17.067Z,1180
2023-01-19T08:58:16.433Z,1240
2023-01-19T08:59:16.948Z,1290
2023-01-19T09:00:16.830Z,1327
2023-01-19T09:01:17.268Z,1353
2023-01-19T09:02:16.955Z,1372
2023-01-19T09:03:16.708Z,1374
2023-01-19T09:04:16.830Z,1350
2023-01-19T09:05:17.313Z,1314
2023-01-19T09:06:17.126Z,1319
2023-01-19T09:07:16.811Z,1270
2023-01-19T09:08:17.344Z,1180
2023-01-19T09:09:16.975Z,1157
2023-01-19T09:10:17.315Z,1144.
2023-01-19T09:11:17.007Z,1157
2023-01-19T09:12:16.833Z,1180
2023-01-19T09:13:16.783Z,1200
2023-01-19T09:14:17.460Z,1400
2023-01-19T09:15:17.083Z,1500
2023-01-19T09:16:17.131Z,1600
2023-01-19T09:17:16.830Z,1780
2023-01-19T09:18:17.138Z,1842
2023-01-19T09:19:17.391Z,1870
2023-01-19T09:20:16.168Z,1898
2023-01-19T09:21:16.733Z,1930
2023-01-19T09:22:16.844Z,1980
2023-01-19T09:23:17.035Z,2039.
2023-01-19T09:24:17.007Z,2030
2023-01-19T09:25:16.756Z,2000
2023-01-19T09:26:16.768Z,2160
2023-01-19T09:27:17.231Z,2193
2023-01-19T09:28:16.700Z,2178
2023-01-19T09:29:16.812Z,2173
2023-01-19T09:30:17.193Z,2120
2023-01-19T09:31:16.949Z,2050
2023-01-19T09:32:16.899Z,2000
2023-01-19T09:33:16.991Z,1800
2023-01-19T09:34:16.674Z,1740
2023-01-19T09:35:16.742Z,1762
2023-01-19T09:36:16.840Z,1739
2023-01-19T09:37:17.306Z,1724
2023-01-19T09:38:16.982Z,1730
2023-01-19T09:39:17.426Z,1750
2023-01-19T09:40:17.176Z,1740
2023-01-19T09:41:18.928Z,1680
2023-01-19T09:42:16.501Z,1647
2023-01-19T09:43:16.899Z,1607
2023-01-19T09:44:17.015Z,1630
2023-01-19T09:45:17.515Z,1649
2023-01-19T09:46:16.957Z,1660
2023-01-19T09:47:17.259Z,1670
2023-01-19T09:48:16.564Z,1600
2023-01-19T09:49:16.856Z,1400
2023-01-19T09:50:16.579Z,1100
2023-01-19T09:53:17.270Z,800
2023-01-19T09:54:17.376Z,764.9
2023-01-19T09:55:17.077Z,778
2023-01-19T09:56:16.743Z,800
2023-01-19T09:57:17.032Z,870
2023-01-19T09:58:16.812Z,900
2023-01-19T09:59:17.012Z,1100
2023-01-19T10:00:17.133Z,1181
2023-01-19T10:01:16.753Z,1140
2023-01-19T10:02:17.218Z,1050
2023-01-19T10:03:16.538Z,1030
2023-01-19T10:04:17.059Z,1100
2023-01-19T10:05:17.241Z,1190
2023-01-19T10:06:16.915Z,1220
2023-01-19T10:07:16.612Z,1280
2023-01-19T10:08:16.648Z,1350
2023-01-19T10:09:16.625Z,1410
2023-01-19T10:10:16.580Z,1421.
2023-01-19T10:11:16.904Z,1419
2023-01-19T10:12:19.098Z,1436
2023-01-19T10:13:16.937Z,1465
2023-01-19T10:14:16.883Z,1456
2023-01-19T10:15:17.029Z,1420
2023-01-19T10:16:16.721Z,1340
2023-01-19T10:17:16.861Z,1270
2023-01-19T10:18:17.050Z,1190
2023-01-19T10:19:16.356Z,1110
2023-01-19T10:20:16.963Z,1087
2023-01-19T10:21:16.915Z,1081.
2023-01-19T10:22:16.491Z,1082
2023-01-19T10:23:16.453Z,1099
2023-01-19T10:24:16.468Z,1120
2023-01-19T10:25:16.937Z,1180
2023-01-19T10:26:17.263Z,1270
2023-01-19T10:27:16.407Z,1340
2023-01-19T10:28:16.441Z,1359
2023-01-19T10:29:16.618Z,1300
2023-01-19T10:30:17.352Z,1230
2023-01-19T10:31:17.018Z,1160
2023-01-19T10:32:16.662Z,1100
2023-01-19T10:33:17.499Z,1059
2023-01-19T10:34:19.806Z,1100
2023-01-19T10:35:17.060Z,1200
2023-01-19T10:36:16.688Z,1290
2023-01-19T10:37:17.278Z,1330
2023-01-19T10:38:16.512Z,1356.
2023-01-19T10:39:16.701Z,1360
2023-01-19T10:40:17.183Z,1400
2023-01-19T10:41:16.584Z,1440
2023-01-19T10:42:16.735Z,1471
2023-01-19T10:43:17.179Z,1500
2023-01-19T10:44:16.688Z,1532
2023-01-19T10:45:17.511Z,1534
2023-01-19T10:46:16.806Z,1530
2023-01-19T10:47:16.588Z,1580
2023-01-19T10:48:16.531Z,1630
2023-01-19T10:49:17.038Z,1660
2023-01-19T10:50:17.220Z,1700
2023-01-19T10:51:16.423Z,1800
2023-01-19T10:52:18.865Z,2100
2023-01-19T10:53:16.741Z,2300
2023-01-19T10:54:16.893Z,2500
2023-01-19T10:55:17.306Z,2700
2023-01-19T10:56:16.722Z,2840
2023-01-19T10:57:21.608Z,2810
2023-01-19T10:58:18.823Z,2773
2023-01-19T10:59:22.037Z,2740
2023-01-19T11:00:17.249Z,2690
2023-01-19T11:01:24.983Z,2620
2023-01-19T11:02:17.089Z,2520
2023-01-19T11:03:17.007Z,2440
2023-01-19T11:04:16.752Z,2360
2023-01-19T11:05:17.260Z,2200
2023-01-19T11:06:16.924Z,2100
2023-01-19T11:07:17.069Z,2080
2023-01-19T11:08:16.207Z,2074
2023-01-19T11:09:31.327Z,2120
2023-01-19T11:10:16.483Z,2190
2023-01-19T11:11:16.632Z,2180
2023-01-19T11:12:17.036Z,2110
2023-01-19T11:13:31.131Z,2050
2023-01-19T11:14:17.055Z,2024
2023-01-19T11:15:16.498Z,2060
2023-01-19T11:16:16.575Z,2120
2023-01-19T11:17:16.891Z,2200
2023-01-19T11:18:16.925Z,2270
2023-01-19T11:19:16.715Z,2340
2023-01-19T11:20:16.791Z,2400
2023-01-19T11:21:17.300Z,2600
2023-01-19T11:22:17.173Z,2800
2023-01-19T11:23:16.500Z,3100
2023-01-19T11:24:16.722Z,3400
2023-01-19T11:25:17.233Z,3600
2023-01-19T11:26:16.489Z,3880
2023-01-19T11:27:16.739Z,3800
2023-01-19T11:28:17.023Z,3000
2023-01-19T11:29:16.798Z,3200
2023-01-19T11:30:17.167Z,3400
2023-01-19T11:31:16.842Z,3000
2023-01-19T11:32:16.579Z,4000
2023-01-19T11:33:17.225Z,4000
2023-01-19T11:34:16.758Z,4800
2023-01-19T11:35:17.289Z,5000
2023-01-19T11:36:16.815Z,0
2023-01-19T11:37:16.677Z,7000
2023-01-19T11:38:17.085Z,7300
2023-01-19T11:39:16.883Z,7200
2023-01-19T11:40:16.752Z,0
2023-01-19T11:41:16.706Z,5000
2023-01-19T11:42:16.951Z,5000
2023-01-19T11:43:17.195Z,5000
2023-01-19T11:44:16.375Z,4000
2023-01-19T11:45:16.951Z,4500
2023-01-19T11:46:17.489Z,4100
2023-01-19T11:47:17.033Z,4100
2023-01-19T11:48:16.590Z,4500
2023-01-19T11:49:17.134Z,4000
2023-01-19T11:50:16.839Z,3000
2023-01-19T11:51:16.734Z,3000
2023-01-19T11:52:17.182Z,3300
2023-01-19T11:53:16.811Z,3500
2023-01-19T11:54:17.224Z,3400
2023-01-19T11:55:17.160Z,3000
2023-01-19T11:56:16.980Z,4000
2023-01-19T11:57:17.047Z,4000
2023-01-19T11:58:17.111Z,0
2023-01-19T11:59:17.167Z,6200
2023-01-19T12:00:17.395Z,6200
2023-01-19T12:01:17.053Z,6400
2023-01-19T12:02:16.448Z,6000
2023-01-19T12:03:17.220Z,5000
2023-01-19T12:04:16.807Z,5000
2023-01-19T12:05:17.494Z,4000
2023-01-19T12:06:16.829Z,4000
2023-01-19T12:07:16.993Z,5000
2023-01-19T12:08:16.444Z,5400
2023-01-19T12:09:16.953Z,5000
2023-01-19T12:10:17.398Z,6000
2023-01-19T12:11:16.611Z,7000
2023-01-19T12:12:17.168Z,8300
2023-01-19T12:13:16.704Z,8300
2023-01-19T12:14:16.814Z,8000
2023-01-19T12:15:16.735Z,7000
2023-01-19T12:16:16.914Z,6000
2023-01-19T12:17:17.391Z,6000
2023-01-19T12:18:16.669Z,5000
2023-01-19T12:19:16.898Z,5500
2023-01-19T12:20:17.348Z,5300
2023-01-19T12:21:16.895Z,5000
2023-01-19T12:22:17.096Z,5000
2023-01-19T12:23:16.847Z,5000
2023-01-19T12:24:17.206Z,5000
2023-01-19T12:25:17.066Z,4900
2023-01-19T12:26:16.682Z,4700
2023-01-19T12:27:17.113Z,4600
2023-01-19T12:28:16.354Z,4400
2023-01-19T12:29:16.643Z,4000
2023-01-19T12:30:16.759Z,3000
2023-01-19T12:31:16.860Z,3000
2023-01-19T12:32:16.679Z,2900
2023-01-19T12:33:17.249Z,2800
2023-01-19T12:34:15.911Z,2000
2023-01-19T12:35:16.928Z,2200
2023-01-19T12:36:16.569Z,2000
2023-01-19T12:37:17.127Z,1970
2023-01-19T12:38:16.752Z,2000
2023-01-19T12:39:17.101Z,2200
2023-01-19T12:40:16.987Z,2333
2023-01-19T12:41:16.775Z,2350
2023-01-19T12:42:16.797Z,2500
2023-01-19T12:43:17.491Z,2000
2023-01-19T12:44:16.740Z,3030
2023-01-19T12:45:16.983Z,2900
2023-01-19T12:46:16.055Z,2810
2023-01-19T12:47:16.751Z,2600
2023-01-19T12:48:16.868Z,2528
2023-01-19T12:49:17.408Z,2580
2023-01-19T12:50:16.941Z,2600
2023-01-19T12:51:16.799Z,2500
2023-01-19T12:52:16.956Z,2200
2023-01-19T12:53:16.591Z,2000
2023-01-19T12:54:16.379Z,1860
2023-01-19T12:55:17.071Z,1861.
2023-01-19T12:56:16.522Z,1862.
2023-01-19T12:57:16.856Z,1853
2023-01-19T12:58:16.768Z,1900
2023-01-19T12:59:17.001Z,2000
2023-01-19T13:00:18.939Z,2200
2023-01-19T13:01:17.249Z,2300
2023-01-19T13:02:16.844Z,2440
2023-01-19T13:03:17.164Z,2500
2023-01-19T13:04:16.593Z,2630
2023-01-19T13:05:17.033Z,2683
2023-01-19T13:06:16.664Z,2700
2023-01-19T13:07:16.862Z,3100
2023-01-19T13:08:16.773Z,3000
2023-01-19T13:09:17.126Z,3000
2023-01-19T13:10:17.485Z,4300
2023-01-19T13:11:16.932Z,4300
2023-01-19T13:12:16.605Z,4000
2023-01-19T13:13:16.923Z,3600
2023-01-19T13:14:16.810Z,3500
2023-01-19T13:15:17.438Z,3800
2023-01-19T13:16:16.593Z,3950
2023-01-19T13:17:16.842Z,3900
2023-01-19T13:18:17.265Z,4000
2023-01-19T13:19:16.575Z,4000
2023-01-19T13:20:17.155Z,5100
2023-01-19T13:21:16.645Z,5100
2023-01-19T13:22:17.213Z,4800
2023-01-19T13:23:16.857Z,4000
2023-01-19T13:24:17.012Z,4000
2023-01-19T13:25:16.778Z,3700
2023-01-19T13:26:24.381Z,3500
2023-01-19T13:27:16.696Z,3300
2023-01-19T13:28:16.694Z,3300
2023-01-19T13:29:17.118Z,3500
2023-01-19T13:30:16.797Z,3600
2023-01-19T13:31:17.200Z,3500
2023-01-19T13:32:17.288Z,3000
2023-01-19T13:33:17.472Z,2000
2023-01-19T13:34:16.614Z,2600
2023-01-19T13:35:17.407Z,2640
2023-01-19T13:36:16.339Z,2500
2023-01-19T13:37:16.383Z,2000
2023-01-19T13:38:16.795Z,1900
2023-01-19T13:39:18.578Z,1870
2023-01-19T13:40:16.946Z,1940
2023-01-19T13:41:17.011Z,2000
2023-01-19T13:42:16.678Z,2300